Time;durP1;ratioP1;P1;durP2;ratioP2;P2;SDS_P1;SDS_P2;PMS_P1;PMS_P2;Temp;Humidity;BMP_temperature;BMP_pressure;BME280_temperature;BME280_humidity;BME280_pressure;Samples;Min_cycle;Max_cycle;Signal;HPM_P1;HPM_P2
2023/05/15 00:00:26;;;;;;;7.72;5.47;;;15.20;95.40;;;;;;4994281;28;20053;-71
2023/05/15 00:02:52;;;;;;;8.23;5.07;;;15.20;95.50;;;;;;5011842;28;20406;-72
2023/05/15 00:05:18;;;;;;;7.85;5.00;;;15.30;95.50;;;;;;5011678;28;20049;-72
2023/05/15 00:07:43;;;;;;;7.45;4.95;;;15.30;95.60;;;;;;4991577;28;20518;-71
2023/05/15 00:10:09;;;;;;;8.45;5.82;;;15.30;95.60;;;;;;5001006;28;20045;-72
2023/05/15 00:12:35;;;;;;;7.60;5.13;;;15.20;95.50;;;;;;5011017;28;20041;-71
2023/05/15 00:15:01;;;;;;;6.82;5.43;;;15.20;95.50;;;;;;4991041;28;20046;-71
2023/05/15 00:17:27;;;;;;;8.70;5.50;;;15.20;95.50;;;;;;4994194;28;20060;-71
2023/05/15 00:19:56;;;;;;;7.82;5.82;;;15.10;95.30;;;;;;5027622;28;20050;-71
2023/05/15 00:22:23;;;;;;;9.10;6.22;;;15.10;95.30;;;;;;5020380;28;20050;-71
2023/05/15 00:24:48;;;;;;;8.50;5.63;;;15.10;95.50;;;;;;5010996;28;20050;-71
2023/05/15 00:27:14;;;;;;;7.13;5.18;;;15.00;95.50;;;;;;5010636;28;20057;-71
2023/05/15 00:29:40;;;;;;;7.97;5.57;;;15.00;95.80;;;;;;5012321;28;20045;-72
2023/05/15 00:32:06;;;;;;;9.55;5.82;;;15.00;95.80;;;;;;5002177;28;20451;-72
2023/05/15 00:34:31;;;;;;;10.75;5.50;;;14.90;95.80;;;;;;4991308;28;20050;-72
2023/05/15 00:36:58;;;;;;;8.32;5.50;;;14.90;96.40;;;;;;5013610;28;20484;-71
2023/05/15 00:39:24;;;;;;;8.90;5.65;;;14.80;96.80;;;;;;5025677;28;20053;-72
2023/05/15 00:41:49;;;;;;;8.45;5.07;;;14.80;97.20;;;;;;4998460;28;20060;-71
2023/05/15 00:44:16;;;;;;;8.82;6.05;;;14.80;97.40;;;;;;4995539;28;20624;-72
2023/05/15 00:46:42;;;;;;;8.43;6.13;;;14.80;97.50;;;;;;5031199;28;20617;-72
2023/05/15 00:49:12;;;;;;;8.77;5.63;;;14.80;97.60;;;;;;5015133;28;20056;-71
2023/05/15 00:51:39;;;;;;;9.82;6.15;;;14.70;97.60;;;;;;5023842;28;20467;-72
2023/05/15 00:54:06;;;;;;;11.07;6.10;;;14.70;97.80;;;;;;5004209;28;20053;-72
2023/05/15 00:56:32;;;;;;;9.30;6.22;;;14.70;97.80;;;;;;4992874;28;20042;-71
2023/05/15 00:58:58;;;;;;;7.18;6.28;;;14.70;98.20;;;;;;5009085;28;20362;-71
2023/05/15 01:01:24;;;;;;;9.55;6.68;;;14.60;98.30;;;;;;5014992;28;20050;-71
2023/05/15 01:03:50;;;;;;;8.30;6.60;;;14.50;98.50;;;;;;4985659;28;20058;-71
2023/05/15 01:06:16;;;;;;;8.85;5.85;;;14.50;98.70;;;;;;5008134;28;20390;-71
2023/05/15 01:08:43;;;;;;;9.90;6.35;;;14.40;98.90;;;;;;5014802;28;20560;-71
2023/05/15 01:11:09;;;;;;;11.55;6.55;;;14.40;98.90;;;;;;4981578;28;20060;-71
2023/05/15 01:13:35;;;;;;;8.82;6.13;;;14.40;99.30;;;;;;4998266;28;20049;-71
2023/05/15 01:16:00;;;;;;;7.85;5.97;;;14.30;99.20;;;;;;5012149;28;20053;-71
2023/05/15 01:18:31;;;;;;;7.82;6.28;;;14.30;99.20;;;;;;5012971;28;20813;-71
2023/05/15 01:20:59;;;;;;;7.32;6.05;;;14.30;98.90;;;;;;4997579;28;20056;-71
2023/05/15 01:23:48;;;;;;;6.65;5.93;;;14.30;98.90;;;;;;5007701;28;20042;-71
2023/05/15 01:26:29;;;;;;;8.27;6.43;;;14.20;99.20;;;;;;5011254;28;20447;-71
2023/05/15 01:29:00;;;;;;;10.60;7.57;;;14.00;99.50;;;;;;5030489;28;20385;-71
2023/05/15 01:31:26;;;;;;;11.48;7.35;;;14.00;99.60;;;;;;5004914;28;20053;-71
2023/05/15 01:33:55;;;;;;;10.43;7.32;;;13.90;99.70;;;;;;4995156;28;20050;-71
2023/05/15 01:36:30;;;;;;;12.50;8.23;;;13.90;99.90;;;;;;5009033;28;20359;-71
2023/05/15 01:39:00;;;;;;;10.85;8.48;;;13.80;99.90;;;;;;5014342;28;20048;-71
2023/05/15 01:41:45;;;;;;;11.38;8.23;;;13.70;99.90;;;;;;5014326;28;20057;-71
2023/05/15 01:44:18;;;;;;;9.50;7.78;;;13.70;99.90;;;;;;5011264;28;20073;-71
2023/05/15 01:46:45;;;;;;;11.77;7.38;;;13.70;99.90;;;;;;5025373;28;20059;-71
2023/05/15 01:49:12;;;;;;;9.52;7.53;;;13.70;99.90;;;;;;5030028;28;20424;-71
2023/05/15 01:51:38;;;;;;;12.30;7.57;;;13.70;99.90;;;;;;4979385;28;20047;-71
2023/05/15 01:54:04;;;;;;;11.45;7.40;;;13.70;99.90;;;;;;4996959;28;20121;-71
2023/05/15 01:56:30;;;;;;;12.20;7.72;;;13.70;99.90;;;;;;4978673;28;20053;-72
2023/05/15 01:58:56;;;;;;;11.98;7.45;;;13.70;99.90;;;;;;5022901;28;20050;-72
2023/05/15 02:01:21;;;;;;;10.02;7.32;;;13.70;99.90;;;;;;5021517;28;20556;-71
2023/05/15 02:03:47;;;;;;;9.02;7.47;;;13.70;99.90;;;;;;5013421;28;20054;-71
2023/05/15 02:06:13;;;;;;;10.82;8.07;;;13.70;99.90;;;;;;5013707;28;20045;-71
2023/05/15 02:08:38;;;;;;;8.43;6.90;;;13.60;99.90;;;;;;4994216;28;20049;-71
2023/05/15 02:11:04;;;;;;;10.80;7.25;;;13.50;99.90;;;;;;4983729;28;20099;-71
2023/05/15 02:13:30;;;;;;;8.15;7.13;;;13.50;99.90;;;;;;5007204;28;20120;-71
2023/05/15 02:15:56;;;;;;;12.20;7.85;;;13.40;99.90;;;;;;5013562;28;20046;-72
2023/05/15 02:18:22;;;;;;;11.60;8.20;;;13.40;99.90;;;;;;4997424;28;20077;-72
2023/05/15 02:20:48;;;;;;;15.95;9.32;;;13.40;99.90;;;;;;5013259;28;20070;-71
2023/05/15 02:23:14;;;;;;;10.20;8.70;;;13.30;99.90;;;;;;4988586;28;20378;-71
2023/05/15 02:26:08;;;;;;;11.65;9.38;;;13.30;99.90;;;;;;5012062;28;20053;-71
2023/05/15 02:28:49;;;;;;;11.48;7.95;;;13.30;99.90;;;;;;5012656;28;20056;-71
2023/05/15 02:31:27;;;;;;;14.85;9.07;;;13.30;99.90;;;;;;4990066;28;20046;-71
2023/05/15 02:34:02;;;;;;;12.20;8.10;;;13.20;99.90;;;;;;4997540;28;20124;-71
2023/05/15 02:36:30;;;;;;;13.68;8.40;;;13.20;99.90;;;;;;4998895;28;20073;-71
2023/05/15 02:38:55;;;;;;;12.80;9.10;;;13.20;99.90;;;;;;5006464;28;20053;-71
2023/05/15 02:41:22;;;;;;;11.65;8.77;;;13.20;99.90;;;;;;5008166;28;20104;-71
2023/05/15 02:43:49;;;;;;;12.77;8.50;;;13.20;99.90;;;;;;4991933;28;20050;-71
2023/05/15 02:46:15;;;;;;;12.63;9.18;;;13.20;99.90;;;;;;4994928;28;20053;-71
2023/05/15 02:48:41;;;;;;;10.88;8.18;;;13.20;99.90;;;;;;4973789;28;20053;-71
2023/05/15 02:51:06;;;;;;;9.90;8.60;;;13.10;99.90;;;;;;5013011;28;20057;-71
2023/05/15 02:53:33;;;;;;;14.63;9.50;;;13.10;99.90;;;;;;5005508;28;20046;-72
2023/05/15 02:55:59;;;;;;;10.93;8.63;;;13.10;99.90;;;;;;5006429;28;20060;-71
2023/05/15 02:58:25;;;;;;;10.32;8.52;;;13.10;99.90;;;;;;5009487;28;20077;-71
2023/05/15 03:00:51;;;;;;;11.25;9.18;;;13.10;99.90;;;;;;4993207;28;20617;-71
2023/05/15 03:03:16;;;;;;;10.18;8.60;;;13.10;99.90;;;;;;5012847;28;20662;-71
2023/05/15 03:05:42;;;;;;;10.60;8.23;;;13.00;99.90;;;;;;5028005;28;20046;-71
2023/05/15 03:08:08;;;;;;;11.20;8.30;;;13.00;99.90;;;;;;5024138;28;20077;-71
2023/05/15 03:10:33;;;;;;;12.75;8.48;;;13.00;99.90;;;;;;5002231;28;20050;-71
2023/05/15 03:12:59;;;;;;;12.15;8.43;;;12.80;99.90;;;;;;5005388;28;20042;-71
2023/05/15 03:15:25;;;;;;;13.80;9.35;;;12.80;99.90;;;;;;4979932;28;20065;-71
2023/05/15 03:17:51;;;;;;;13.88;9.90;;;12.70;99.90;;;;;;4979262;28;20463;-71
2023/05/15 03:20:16;;;;;;;13.55;9.45;;;12.70;99.90;;;;;;4995445;28;20050;-71
2023/05/15 03:22:42;;;;;;;11.52;8.45;;;12.70;99.90;;;;;;5000961;28;20084;-71
2023/05/15 03:25:11;;;;;;;14.90;9.50;;;12.70;99.90;;;;;;4996072;28;20046;-71
2023/05/15 03:27:37;;;;;;;13.13;9.45;;;12.80;99.90;;;;;;5006264;28;20092;-71
2023/05/15 03:30:05;;;;;;;13.75;9.35;;;12.80;99.90;;;;;;5012566;28;20073;-71
2023/05/15 03:32:31;;;;;;;11.07;8.55;;;12.80;99.90;;;;;;5008984;28;20080;-71
2023/05/15 03:34:56;;;;;;;12.25;10.35;;;12.80;99.90;;;;;;4995827;28;20070;-71
2023/05/15 03:37:22;;;;;;;14.50;8.75;;;12.80;99.90;;;;;;4995356;28;20514;-71
2023/05/15 03:39:47;;;;;;;12.40;8.68;;;12.80;99.90;;;;;;4992600;28;20060;-71
2023/05/15 03:42:13;;;;;;;12.98;8.82;;;12.80;99.90;;;;;;5005741;28;20049;-71
2023/05/15 03:44:40;;;;;;;13.55;9.07;;;12.80;99.90;;;;;;5010574;28;20046;-71
2023/05/15 03:47:05;;;;;;;11.43;8.77;;;12.70;99.90;;;;;;5009478;28;20392;-71
2023/05/15 03:49:31;;;;;;;13.43;9.45;;;12.60;99.90;;;;;;5010877;28;20042;-71
2023/05/15 03:51:57;;;;;;;11.90;9.73;;;12.60;99.90;;;;;;4978979;28;20049;-71
2023/05/15 03:54:23;;;;;;;11.60;9.45;;;12.50;99.90;;;;;;4979160;28;20574;-71
2023/05/15 03:56:49;;;;;;;11.45;9.35;;;12.50;99.90;;;;;;4978757;28;20447;-71
2023/05/15 03:59:15;;;;;;;15.20;9.98;;;12.50;99.90;;;;;;4994897;28;20046;-71
2023/05/15 04:01:41;;;;;;;14.45;10.05;;;12.50;99.90;;;;;;4993152;28;20619;-71
2023/05/15 04:04:06;;;;;;;10.48;8.88;;;12.50;99.90;;;;;;5012402;28;20378;-71
2023/05/15 04:06:32;;;;;;;12.55;9.15;;;12.50;99.90;;;;;;4994456;28;20049;-71
2023/05/15 04:08:58;;;;;;;15.13;8.82;;;12.50;99.90;;;;;;5011217;28;20050;-71
2023/05/15 04:11:24;;;;;;;13.65;9.32;;;12.50;99.90;;;;;;5003645;28;20192;-71
2023/05/15 04:13:49;;;;;;;11.88;9.10;;;12.50;99.90;;;;;;5006403;28;20053;-71
2023/05/15 04:16:15;;;;;;;12.68;9.25;;;12.50;99.90;;;;;;5014386;28;20056;-71
2023/05/15 04:18:41;;;;;;;13.38;10.25;;;12.50;99.90;;;;;;5011405;28;20065;-71
2023/05/15 04:21:06;;;;;;;12.82;9.40;;;12.50;99.90;;;;;;5010864;28;20073;-71
2023/05/15 04:23:32;;;;;;;14.60;11.18;;;12.50;99.90;;;;;;4978697;28;20136;-71
2023/05/15 04:25:58;;;;;;;11.93;9.27;;;12.50;99.90;;;;;;5011545;28;20463;-71
2023/05/15 04:28:24;;;;;;;11.18;9.25;;;12.50;99.90;;;;;;5010703;28;20060;-71
2023/05/15 04:30:49;;;;;;;10.35;9.18;;;12.50;99.90;;;;;;4990143;28;20050;-71
2023/05/15 04:33:15;;;;;;;11.48;9.68;;;12.50;99.90;;;;;;5010723;28;20486;-71
2023/05/15 04:35:41;;;;;;;17.92;9.43;;;12.60;99.90;;;;;;4991143;28;20085;-71
2023/05/15 04:38:06;;;;;;;10.55;8.73;;;12.50;99.90;;;;;;4994394;28;20053;-71
2023/05/15 04:40:32;;;;;;;15.82;10.93;;;12.50;99.90;;;;;;4990343;28;20050;-71
2023/05/15 04:42:58;;;;;;;14.95;9.93;;;12.50;99.90;;;;;;4993996;28;20075;-71
2023/05/15 04:45:24;;;;;;;15.18;10.07;;;12.50;99.90;;;;;;5010364;28;20045;-71
2023/05/15 04:47:50;;;;;;;12.45;10.30;;;12.40;99.90;;;;;;5011191;28;20809;-71
2023/05/15 04:50:15;;;;;;;11.18;9.98;;;12.50;99.90;;;;;;5011197;28;20101;-71
2023/05/15 04:52:44;;;;;;;13.77;10.48;;;12.40;99.90;;;;;;5011689;28;20042;-71
2023/05/15 04:55:10;;;;;;;14.05;10.25;;;12.40;99.90;;;;;;5010519;28;20659;-71
2023/05/15 04:57:36;;;;;;;13.07;10.32;;;12.40;99.90;;;;;;4994899;28;20050;-72
2023/05/15 05:00:04;;;;;;;12.63;9.98;;;12.40;99.90;;;;;;4998756;28;20348;-72
2023/05/15 05:02:30;;;;;;;;;;;12.50;99.90;;;;;;4995828;28;20486;-72
2023/05/15 05:04:55;;;;;;;12.90;9.73;;;12.50;99.90;;;;;;5011075;28;20008;-72
2023/05/15 05:07:21;;;;;;;16.20;11.30;;;12.50;99.90;;;;;;4981033;28;20049;-72
2023/05/15 05:09:47;;;;;;;13.40;10.13;;;12.50;99.90;;;;;;4994959;28;20686;-71
2023/05/15 05:12:13;;;;;;;12.68;10.25;;;12.50;99.90;;;;;;4992012;28;20581;-71
2023/05/15 05:14:43;;;;;;;17.05;10.55;;;12.60;99.90;;;;;;4994418;28;20090;-71
2023/05/15 05:17:09;;;;;;;15.15;10.02;;;12.50;99.90;;;;;;5010287;28;20132;-71
2023/05/15 05:19:35;;;;;;;13.40;10.20;;;12.60;99.90;;;;;;4991113;28;20447;-71
2023/05/15 05:22:03;;;;;;;17.17;10.85;;;12.60;99.90;;;;;;5007168;28;20060;-71
2023/05/15 05:24:30;;;;;;;16.65;10.70;;;12.60;99.90;;;;;;5013392;28;20050;-71
2023/05/15 05:26:57;;;;;;;16.05;10.50;;;12.70;99.90;;;;;;5008263;28;20056;-71
2023/05/15 05:29:23;;;;;;;15.65;11.38;;;12.70;99.90;;;;;;4992476;28;20383;-73
2023/05/15 05:31:49;;;;;;;13.07;10.32;;;12.70;99.90;;;;;;5011255;28;20042;-73
2023/05/15 05:34:14;;;;;;;15.40;10.73;;;12.70;99.90;;;;;;4992763;28;20049;-73
2023/05/15 05:36:41;;;;;;;13.38;10.38;;;12.70;99.90;;;;;;4995998;28;20644;-73
2023/05/15 05:39:07;;;;;;;12.82;8.98;;;12.70;99.90;;;;;;5011596;28;20037;-73
2023/05/15 05:41:33;;;;;;;14.20;10.55;;;12.70;99.90;;;;;;5013421;28;20056;-71
2023/05/15 05:43:59;;;;;;;15.52;10.35;;;12.70;99.90;;;;;;4997744;28;20490;-71
2023/05/15 05:46:26;;;;;;;13.18;10.15;;;12.80;99.90;;;;;;5013769;28;20073;-71
2023/05/15 05:48:51;;;;;;;16.05;10.48;;;12.80;99.90;;;;;;4995593;28;20088;-71
2023/05/15 05:51:17;;;;;;;13.23;9.45;;;12.80;99.90;;;;;;5013017;28;20159;-71
2023/05/15 05:53:43;;;;;;;11.25;9.15;;;12.90;99.90;;;;;;5028638;28;20461;-71
2023/05/15 05:56:09;;;;;;;14.30;9.90;;;12.90;99.90;;;;;;5045344;28;20131;-71
2023/05/15 05:58:34;;;;;;;13.65;9.52;;;12.90;99.90;;;;;;5007112;28;20038;-71
2023/05/15 06:01:00;;;;;;;14.50;10.32;;;13.00;99.90;;;;;;4997309;28;20541;-71
2023/05/15 06:03:26;;;;;;;12.73;10.05;;;13.00;99.90;;;;;;5021173;28;20520;-71
2023/05/15 06:05:52;;;;;;;13.45;10.55;;;13.10;99.90;;;;;;5013844;28;20061;-71
2023/05/15 06:08:18;;;;;;;15.32;10.75;;;13.10;99.90;;;;;;4994377;28;20185;-71
2023/05/15 06:10:44;;;;;;;16.48;11.05;;;13.10;99.90;;;;;;5009142;28;20893;-71
2023/05/15 06:13:11;;;;;;;14.50;10.25;;;13.10;99.90;;;;;;4990140;28;20136;-71
2023/05/15 06:15:37;;;;;;;15.52;10.30;;;13.20;99.90;;;;;;5014550;28;20379;-71
2023/05/15 06:18:02;;;;;;;16.45;11.77;;;13.20;99.90;;;;;;4980906;28;20463;-71
2023/05/15 06:20:28;;;;;;;21.35;10.85;;;13.30;99.90;;;;;;5010903;28;20534;-71
2023/05/15 06:22:54;;;;;;;16.65;10.38;;;13.30;99.90;;;;;;4997246;28;20050;-71
2023/05/15 06:25:20;;;;;;;17.08;11.18;;;13.40;99.90;;;;;;4995798;28;20509;-71
2023/05/15 06:27:46;;;;;;;14.98;11.13;;;13.40;99.90;;;;;;5013479;28;20057;-71
2023/05/15 06:30:12;;;;;;;16.38;11.48;;;13.40;99.90;;;;;;4996352;28;20459;-71
2023/05/15 06:32:38;;;;;;;12.18;10.77;;;13.40;99.90;;;;;;5001883;28;20060;-71
2023/05/15 06:35:06;;;;;;;12.90;11.10;;;13.50;99.90;;;;;;5005966;28;20362;-71
2023/05/15 06:37:31;;;;;;;15.23;11.20;;;13.50;99.90;;;;;;4992398;28;20467;-71
2023/05/15 06:39:57;;;;;;;13.25;10.73;;;13.50;99.90;;;;;;5007413;28;20621;-71
2023/05/15 06:42:23;;;;;;;16.23;11.18;;;13.60;99.90;;;;;;4992445;28;20058;-71
2023/05/15 06:44:48;;;;;;;15.70;10.45;;;13.60;99.90;;;;;;5028690;28;20065;-71
2023/05/15 06:47:15;;;;;;;13.80;10.70;;;13.60;99.90;;;;;;4993444;28;20077;-71
2023/05/15 06:49:40;;;;;;;14.60;10.90;;;13.70;99.90;;;;;;5028536;28;20096;-71
2023/05/15 06:52:06;;;;;;;16.85;10.30;;;13.80;99.90;;;;;;5011114;28;20049;-71
2023/05/15 06:54:32;;;;;;;16.90;10.00;;;13.80;99.90;;;;;;5006578;28;20038;-71
2023/05/15 06:56:58;;;;;;;12.85;9.18;;;13.80;99.90;;;;;;4996148;28;20037;-71
2023/05/15 06:59:24;;;;;;;12.40;9.23;;;13.80;99.90;;;;;;5001189;28;20045;-71
2023/05/15 07:01:49;;;;;;;14.63;9.02;;;13.90;99.90;;;;;;5005195;28;20049;-71
2023/05/15 07:04:15;;;;;;;13.25;8.95;;;14.00;99.90;;;;;;4995525;28;20084;-71
2023/05/15 07:06:41;;;;;;;14.25;9.32;;;14.10;99.90;;;;;;4991757;28;20644;-71
2023/05/15 07:09:08;;;;;;;10.63;9.00;;;14.10;99.90;;;;;;4993835;28;20048;-71
2023/05/15 07:11:36;;;;;;;12.48;9.18;;;14.20;99.90;;;;;;5017349;28;20076;-71
2023/05/15 07:14:02;;;;;;;10.32;8.30;;;14.30;99.90;;;;;;4995742;28;20053;-71
2023/05/15 07:16:28;;;;;;;12.90;8.20;;;14.40;99.90;;;;;;5018275;28;20045;-71
2023/05/15 07:18:54;;;;;;;13.07;9.45;;;14.40;99.90;;;;;;5009470;28;20046;-71
2023/05/15 07:21:20;;;;;;;13.27;8.90;;;14.40;99.90;;;;;;5005712;28;20108;-71
2023/05/15 07:23:45;;;;;;;13.25;8.90;;;14.50;99.90;;;;;;4992269;28;20165;-71
2023/05/15 07:26:13;;;;;;;12.25;9.00;;;14.50;99.90;;;;;;5009696;28;20045;-71
2023/05/15 07:28:39;;;;;;;11.02;8.13;;;14.60;99.90;;;;;;4993467;28;20050;-71
2023/05/15 07:31:07;;;;;;;12.65;8.68;;;14.70;99.90;;;;;;5007340;28;20042;-71
2023/05/15 07:33:33;;;;;;;10.98;8.45;;;14.80;99.90;;;;;;5012389;28;20378;-71
2023/05/15 07:35:58;;;;;;;11.63;8.18;;;14.90;99.90;;;;;;5002873;28;20066;-72
2023/05/15 07:38:24;;;;;;;11.52;8.23;;;14.90;99.90;;;;;;5001205;28;20390;-72
2023/05/15 07:40:50;;;;;;;11.68;7.30;;;15.00;99.90;;;;;;4989678;28;20072;-71
2023/05/15 07:43:16;;;;;;;10.55;6.85;;;15.10;99.90;;;;;;5007518;28;20053;-72
2023/05/15 07:45:42;;;;;;;17.80;7.85;;;15.20;99.70;;;;;;4992356;28;20054;-71
2023/05/15 07:48:14;;;;;;;10.20;7.47;;;15.30;98.90;;;;;;4995222;28;20069;-71
2023/05/15 07:50:40;;;;;;;12.98;7.80;;;15.30;99.00;;;;;;5012236;28;20045;-71
2023/05/15 07:53:06;;;;;;;10.88;6.65;;;15.40;99.20;;;;;;5006571;28;20116;-71
2023/05/15 07:55:31;;;;;;;10.05;6.90;;;15.60;99.20;;;;;;4994409;28;20060;-71
2023/05/15 07:57:57;;;;;;;9.45;7.22;;;15.60;98.60;;;;;;5004773;28;20045;-71
2023/05/15 08:00:23;;;;;;;11.88;7.22;;;15.60;99.00;;;;;;4994150;28;20053;-71
2023/05/15 08:02:49;;;;;;;10.95;7.05;;;15.70;98.40;;;;;;5003733;28;20049;-72
2023/05/15 08:05:15;;;;;;;13.35;6.72;;;15.70;98.10;;;;;;5011539;28;20084;-71
2023/05/15 08:07:41;;;;;;;10.50;7.60;;;15.70;98.10;;;;;;5013194;28;20074;-71
2023/05/15 08:10:07;;;;;;;8.93;6.60;;;15.80;98.30;;;;;;4997395;28;20486;-71
2023/05/15 08:12:33;;;;;;;10.50;7.07;;;15.90;98.40;;;;;;5009390;28;20448;-71
2023/05/15 08:14:58;;;;;;;14.10;7.85;;;16.00;98.70;;;;;;5011163;28;20065;-71
2023/05/15 08:17:24;;;;;;;12.13;7.97;;;15.90;98.40;;;;;;5011171;28;20782;-71
2023/05/15 08:19:50;;;;;;;15.10;8.00;;;16.00;98.60;;;;;;4994309;28;20053;-71
2023/05/15 08:22:16;;;;;;;11.73;7.20;;;16.10;98.50;;;;;;4995623;28;20045;-71
2023/05/15 08:24:42;;;;;;;11.85;8.13;;;16.10;98.80;;;;;;5007901;28;20056;-71
2023/05/15 08:27:08;;;;;;;12.18;7.82;;;16.20;98.90;;;;;;4990821;28;20042;-71
2023/05/15 08:29:37;;;;;;;14.30;8.30;;;16.20;98.80;;;;;;5011096;28;20050;-71
2023/05/15 08:32:03;;;;;;;14.10;7.70;;;16.20;99.60;;;;;;5023198;28;20050;-71
2023/05/15 08:34:28;;;;;;;13.05;8.25;;;16.30;99.40;;;;;;4995772;28;20099;-71
2023/05/15 08:36:55;;;;;;;17.55;7.85;;;16.40;98.70;;;;;;5021459;28;20366;-71
2023/05/15 08:39:21;;;;;;;10.65;7.32;;;16.50;98.90;;;;;;4997939;28;20056;-71
2023/05/15 08:42:06;;;;;;;10.48;7.43;;;16.60;99.00;;;;;;5005569;28;20053;-71
2023/05/15 08:44:32;;;;;;;10.88;7.22;;;16.70;99.60;;;;;;5004953;28;20049;-71
2023/05/15 08:46:57;;;;;;;12.70;7.20;;;17.00;99.90;;;;;;5013735;28;20045;-71
2023/05/15 08:49:23;;;;;;;10.43;6.53;;;17.10;98.30;;;;;;5014974;28;20116;-71
2023/05/15 08:51:49;;;;;;;11.00;6.72;;;17.20;98.70;;;;;;5018878;28;20478;-71
2023/05/15 08:54:15;;;;;;;9.70;6.50;;;17.30;98.70;;;;;;4988054;28;20050;-71
2023/05/15 08:56:41;;;;;;;11.73;6.00;;;17.40;98.20;;;;;;5019982;28;20045;-71
2023/05/15 08:59:07;;;;;;;9.02;6.20;;;17.40;96.20;;;;;;5020432;28;20545;-71
2023/05/15 09:01:32;;;;;;;11.43;5.88;;;17.40;96.90;;;;;;4977489;28;20049;-71
2023/05/15 09:03:58;;;;;;;13.38;5.78;;;17.60;96.80;;;;;;5020273;28;20050;-71
2023/05/15 09:06:24;;;;;;;12.88;6.68;;;17.70;96.90;;;;;;4990683;28;20212;-71
2023/05/15 09:08:50;;;;;;;10.32;6.75;;;17.70;97.10;;;;;;5009051;28;20062;-71
2023/05/15 09:11:16;;;;;;;11.43;6.88;;;17.80;97.60;;;;;;5013893;28;20053;-71
2023/05/15 09:13:41;;;;;;;11.25;5.50;;;17.90;96.80;;;;;;5007145;28;20045;-71
2023/05/15 09:16:07;;;;;;;9.30;5.32;;;18.10;97.30;;;;;;5014351;28;20050;-72
2023/05/15 09:18:33;;;;;;;8.77;5.90;;;18.10;95.10;;;;;;5013860;28;20103;-71
2023/05/15 09:21:27;;;;;;;10.52;5.40;;;18.20;94.80;;;;;;4990479;28;20459;-71
2023/05/15 09:23:54;;;;;;;12.60;4.35;;;18.30;95.00;;;;;;4994934;28;20050;-71
2023/05/15 09:26:20;;;;;;;6.15;4.88;;;18.40;91.80;;;;;;4994889;28;20045;-71
2023/05/15 09:28:47;;;;;;;9.05;5.30;;;18.40;91.20;;;;;;4988820;28;20115;-71
2023/05/15 09:31:12;;;;;;;7.32;4.32;;;18.30;91.40;;;;;;5006031;28;20111;-71
2023/05/15 09:33:39;;;;;;;7.90;4.38;;;18.40;91.10;;;;;;4990647;28;20050;-71
2023/05/15 09:36:06;;;;;;;7.93;4.97;;;18.60;90.70;;;;;;4995418;28;20046;-71
2023/05/15 09:38:32;;;;;;;7.70;4.85;;;18.60;90.40;;;;;;5013857;28;20042;-71
2023/05/15 09:41:06;;;;;;;8.68;4.20;;;18.60;91.10;;;;;;5012507;28;20707;-71
2023/05/15 09:43:38;;;;;;;7.22;4.43;;;18.60;91.10;;;;;;4996925;28;20395;-71
2023/05/15 09:46:05;;;;;;;9.02;4.35;;;18.60;90.10;;;;;;4996656;28;20081;-71
2023/05/15 09:48:31;;;;;;;10.52;4.32;;;18.80;89.40;;;;;;5007567;28;20057;-71
2023/05/15 09:50:57;;;;;;;6.20;4.00;;;18.90;90.40;;;;;;4971002;28;20058;-71
2023/05/15 09:53:22;;;;;;;11.15;4.40;;;19.10;89.10;;;;;;5008967;28;20045;-71
2023/05/15 09:55:48;;;;;;;5.72;4.07;;;19.20;89.10;;;;;;5006945;28;20042;-72
2023/05/15 09:58:15;;;;;;;8.00;4.35;;;19.40;90.10;;;;;;5029824;28;20057;-71
2023/05/15 10:00:42;;;;;;;6.75;4.32;;;19.50;90.40;;;;;;5037224;28;20419;-71
2023/05/15 10:03:08;;;;;;;10.90;4.22;;;19.60;84.60;;;;;;5007223;28;20486;-71
2023/05/15 10:05:34;;;;;;;9.00;4.30;;;19.60;86.00;;;;;;5006969;28;20053;-71
2023/05/15 10:08:00;;;;;;;7.47;4.28;;;19.80;88.90;;;;;;5016816;28;20046;-72
2023/05/15 10:10:26;;;;;;;6.95;4.30;;;19.90;89.30;;;;;;5021566;28;20065;-72
2023/05/15 10:12:58;;;;;;;10.45;4.30;;;19.90;88.40;;;;;;4998993;28;20045;-72
2023/05/15 10:15:24;;;;;;;7.00;4.43;;;19.80;84.80;;;;;;4978075;28;20065;-71
2023/05/15 10:17:51;;;;;;;6.43;4.30;;;19.60;84.60;;;;;;5040145;28;20046;-71
2023/05/15 10:20:18;;;;;;;9.48;4.15;;;19.50;84.80;;;;;;5019844;28;20064;-71
2023/05/15 10:22:46;;;;;;;8.25;4.22;;;19.40;84.20;;;;;;5016954;28;20046;-71
2023/05/15 10:25:40;;;;;;;7.13;4.25;;;19.40;84.80;;;;;;5001751;28;20046;-71
2023/05/15 10:28:08;;;;;;;8.60;3.85;;;19.20;84.40;;;;;;5016395;28;20127;-70
2023/05/15 10:30:34;;;;;;;7.57;4.00;;;19.20;85.50;;;;;;4996013;28;20057;-70
2023/05/15 10:33:00;;;;;;;7.25;4.20;;;19.20;84.70;;;;;;4979954;28;20034;-70
2023/05/15 10:35:25;;;;;;;11.52;4.80;;;19.20;83.80;;;;;;5013051;28;20049;-70
2023/05/15 10:37:52;;;;;;;5.57;4.00;;;19.20;84.60;;;;;;5016320;28;20394;-70
2023/05/15 10:40:18;;;;;;;8.50;4.28;;;19.10;83.10;;;;;;4996329;28;20038;-70
2023/05/15 10:42:45;;;;;;;7.63;4.70;;;19.20;84.30;;;;;;4992429;28;20100;-70
2023/05/15 10:45:11;;;;;;;6.55;4.10;;;19.30;84.10;;;;;;5017043;28;20041;-70
2023/05/15 10:47:37;;;;;;;6.68;4.03;;;19.30;83.30;;;;;;5012477;28;20057;-70
2023/05/15 10:50:04;;;;;;;7.85;3.80;;;19.30;83.20;;;;;;4994628;28;20494;-70
2023/05/15 10:52:34;;;;;;;9.65;3.80;;;19.30;82.80;;;;;;5018141;28;20352;-70
2023/05/15 10:55:00;;;;;;;7.05;3.83;;;19.40;81.00;;;;;;5031310;28;20049;-70
2023/05/15 10:57:28;;;;;;;5.43;3.53;;;19.50;82.40;;;;;;5012314;28;20046;-70
2023/05/15 10:59:55;;;;;;;9.27;3.60;;;19.60;83.00;;;;;;4975149;28;20410;-70
2023/05/15 11:02:25;;;;;;;5.30;3.85;;;19.50;82.30;;;;;;5011763;28;20058;-70
2023/05/15 11:05:01;;;;;;;7.25;4.10;;;19.50;84.50;;;;;;4996379;28;20061;-70
2023/05/15 11:07:27;;;;;;;9.45;4.05;;;19.50;84.70;;;;;;5008041;28;20054;-70
2023/05/15 11:09:53;;;;;;;9.57;3.88;;;19.20;83.40;;;;;;5002422;28;20050;-73
2023/05/15 11:12:19;;;;;;;8.00;4.00;;;19.30;86.30;;;;;;4984242;28;20758;-70
2023/05/15 11:14:51;;;;;;;8.05;4.32;;;19.20;86.10;;;;;;5006536;28;20053;-70
2023/05/15 11:17:17;;;;;;;10.68;3.75;;;19.10;85.60;;;;;;5015307;28;20056;-70
2023/05/15 11:19:48;;;;;;;6.40;3.75;;;19.00;84.30;;;;;;5009926;28;20041;-70
2023/05/15 11:22:25;;;;;;;7.47;3.65;;;19.00;83.70;;;;;;4990167;28;20945;-70
2023/05/15 11:24:54;;;;;;;6.32;3.92;;;19.00;83.50;;;;;;5011659;28;20050;-71
2023/05/15 11:27:25;;;;;;;6.82;4.20;;;19.00;83.40;;;;;;5021183;28;20045;-71
2023/05/15 11:30:21;;;;;;;6.97;4.03;;;19.00;83.80;;;;;;5016187;28;20072;-70
2023/05/15 11:32:47;;;;;;;8.95;4.68;;;19.10;84.50;;;;;;4990857;28;20801;-70
2023/05/15 11:35:17;;;;;;;6.55;3.90;;;19.10;84.70;;;;;;5010135;28;20132;-70
2023/05/15 11:37:50;;;;;;;8.90;3.80;;;19.20;85.60;;;;;;5036039;28;20437;-70
2023/05/15 11:40:20;;;;;;;8.05;4.05;;;19.20;84.20;;;;;;5022481;28;20447;-70
2023/05/15 11:43:03;;;;;;;10.02;3.63;;;19.30;84.00;;;;;;5005084;28;20111;-70
2023/05/15 11:45:30;;;;;;;10.18;3.70;;;19.30;81.70;;;;;;5010984;28;20046;-70
2023/05/15 11:47:56;;;;;;;6.93;2.95;;;18.80;79.90;;;;;;5012136;28;20057;-70
2023/05/15 11:50:22;;;;;;;6.50;3.33;;;18.50;79.50;;;;;;5012044;28;20056;-70
2023/05/15 11:52:48;;;;;;;6.72;3.35;;;18.30;81.30;;;;;;5011423;28;20046;-70
2023/05/15 11:55:15;;;;;;;19.33;3.92;;;18.10;82.80;;;;;;5012314;28;20378;-70
2023/05/15 11:57:40;;;;;;;9.38;3.75;;;17.80;84.90;;;;;;5002332;28;20053;-69
2023/05/15 12:00:08;;;;;;;5.43;3.40;;;17.60;88.20;;;;;;5007805;28;20050;-70
2023/05/15 12:02:34;;;;;;;5.38;3.35;;;17.40;87.70;;;;;;5014020;28;20056;-70
2023/05/15 12:05:00;;;;;;;7.05;3.97;;;17.30;88.10;;;;;;5016430;28;20062;-70
2023/05/15 12:07:25;;;;;;;6.75;3.75;;;17.20;89.70;;;;;;5002036;28;20060;-70
2023/05/15 12:09:51;;;;;;;6.78;3.47;;;17.10;89.70;;;;;;5001417;28;20046;-70
2023/05/15 12:12:17;;;;;;;7.10;3.90;;;17.20;90.10;;;;;;5003086;28;20374;-70
2023/05/15 12:14:43;;;;;;;8.57;3.35;;;17.30;88.70;;;;;;5006576;28;20062;-70
2023/05/15 12:17:08;;;;;;;5.13;3.40;;;17.40;89.20;;;;;;5007004;28;20131;-70
2023/05/15 12:19:34;;;;;;;5.53;2.90;;;17.50;87.40;;;;;;5011193;28;20073;-70
2023/05/15 12:22:01;;;;;;;7.43;3.13;;;17.50;87.90;;;;;;5037629;28;20124;-70
2023/05/15 12:24:27;;;;;;;5.13;3.03;;;17.60;86.50;;;;;;5021738;28;20073;-70
2023/05/15 12:26:52;;;;;;;4.60;2.97;;;17.60;86.50;;;;;;5024411;28;20387;-70
2023/05/15 12:29:18;;;;;;;7.18;3.45;;;17.70;87.90;;;;;;4968577;28;20466;-70
2023/05/15 12:31:44;;;;;;;6.95;3.63;;;17.80;86.30;;;;;;4994053;28;20049;-70
2023/05/15 12:34:10;;;;;;;6.20;3.35;;;17.90;87.10;;;;;;4992742;28;20344;-70
2023/05/15 12:36:35;;;;;;;8.90;3.67;;;18.10;88.20;;;;;;5008282;28;20552;-70